Time;durP1;ratioP1;P1;durP2;ratioP2;P2;SDS_P1;SDS_P2;PMS_P1;PMS_P2;Temp;Humidity;BMP_temperature;BMP_pressure;BME280_temperature;BME280_humidity;BME280_pressure;Samples;Min_cycle;Max_cycle;Signal;HPM_P1;HPM_P2
2022/12/27 00:00:43;;;;;;;;;;;;;;;;;;4438962;32;19970;-75
2022/12/27 00:03:08;;;;;;;;;;;;;;;;;;4453734;32;19976;-73
2022/12/27 00:05:33;;;;;;;;;;;;;;;;;;4439738;32;19947;-75
2022/12/27 00:07:58;;;;;;;;;;;;;;;;;;4452865;32;19944;-74
2022/12/27 00:10:23;;;;;;;;;;;;;;;;;;4452401;32;19937;-74
2022/12/27 00:12:48;;;;;;;;;;;;;;;;;;4452695;32;20032;-75
2022/12/27 00:15:13;;;;;;;;;;;;;;;;;;4453788;32;20294;-74
2022/12/27 00:17:38;;;;;;;;;;;;;;;;;;4453818;32;20012;-75
2022/12/27 00:20:03;;;;;;;;;;;;;;;;;;4453295;32;19973;-75
2022/12/27 00:22:29;;;;;;;;;;;;;;;;;;4453521;32;19936;-74
2022/12/27 00:24:54;;;;;;;;;;;;;;;;;;4453675;32;19973;-75
2022/12/27 00:27:19;;;;;;;;;;;;;;;;;;4439538;32;19965;-75
2022/12/27 00:29:44;;;;;;;;;;;;;;;;;;4452974;32;19970;-74
2022/12/27 00:32:09;;;;;;;;;;;;;;;;;;4453173;32;19932;-74
2022/12/27 00:34:34;;;;;;;;;;;;;;;;;;4438592;32;19949;-74
2022/12/27 00:36:59;;;;;;;;;;;;;;;;;;4454084;32;19932;-75
2022/12/27 00:39:24;;;;;;;;;;;;;;;;;;4452370;32;19947;-75
2022/12/27 00:41:49;;;;;;;;;;;;;;;;;;4439204;32;19940;-75
2022/12/27 00:44:14;;;;;;;;;;;;;;;;;;4453413;32;19936;-76
2022/12/27 00:46:41;;;;;;;;;;;;;;;;;;4452608;32;20362;-75
2022/12/27 00:49:06;;;;;;;;;;;;;;;;;;4452787;32;19936;-77
2022/12/27 00:51:31;;;;;;;;;;;;;;;;;;4440438;32;19951;-77
2022/12/27 00:53:56;;;;;;;;;;;;;;;;;;4438765;32;20004;-78
2022/12/27 00:56:21;;;;;;;;;;;;;;;;;;4456045;32;19943;-77
2022/12/27 00:58:47;;;;;;;;;;;;;;;;;;4456836;32;19987;-77
2022/12/27 01:01:12;;;;;;;;;;;;;;;;;;4453765;32;19936;-78
2022/12/27 01:03:37;;;;;;;;;;;;;;;;;;4452565;32;20024;-78
2022/12/27 01:06:02;;;;;;;;;;;;;;;;;;4453099;32;20011;-77
2022/12/27 01:08:28;;;;;;;;;;;;;;;;;;4453833;32;20305;-79
2022/12/27 01:10:54;;;;;;;;;;;;;;;;;;4452687;32;20275;-78
2022/12/27 01:13:19;;;;;;;;;;;;;;;;;;4452655;32;20354;-77
2022/12/27 01:15:44;;;;;;;;;;;;;;;;;;4453467;32;19947;-77
2022/12/27 01:18:09;;;;;;;;;;;;;;;;;;4453249;32;20347;-78
2022/12/27 01:20:34;;;;;;;;;;;;;;;;;;4451690;32;19932;-76
2022/12/27 01:22:59;;;;;;;;;;;;;;;;;;4452501;32;20302;-76
2022/12/27 01:25:24;;;;;;;;;;;;;;;;;;4451938;32;19956;-77
2022/12/27 01:27:49;;;;;;;;;;;;;;;;;;4437813;32;19973;-78
2022/12/27 01:30:14;;;;;;;;;;;;;;;;;;4452283;32;19947;-76
2022/12/27 01:32:39;;;;;;;;;;;;;;;;;;4437661;32;19936;-77
2022/12/27 01:35:05;;;;;;;;;;;;;;;;;;4452463;32;19956;-77
2022/12/27 01:37:30;;;;;;;;;;;;;;;;;;4452090;32;19940;-78
2022/12/27 01:39:55;;;;;;;;;;;;;;;;;;4437916;32;19942;-78
2022/12/27 01:45:04;;;;;;;;;;;;;;;;;;4453669;32;19952;-78
2022/12/27 01:47:29;;;;;;;;;;;;;;;;;;4451834;32;20287;-78
2022/12/27 01:49:54;;;;;;;;;;;;;;;;;;4438062;32;19937;-78
2022/12/27 01:52:19;;;;;;;;;;;;;;;;;;4451849;32;19936;-78
2022/12/27 01:54:44;;;;;;;;;;;;;;;;;;4452291;32;19940;-78
2022/12/27 01:57:09;;;;;;;;;;;;;;;;;;4437841;32;19937;-78
2022/12/27 01:59:34;;;;;;;;;;;;;;;;;;4439125;32;19936;-78
2022/12/27 02:02:00;;;;;;;;;;;;;;;;;;4451678;32;19956;-78
2022/12/27 02:04:25;;;;;;;;;;;;;;;;;;4451829;32;20009;-78
2022/12/27 02:06:50;;;;;;;;;;;;;;;;;;4452507;32;19948;-78
2022/12/27 02:09:15;;;;;;;;;;;;;;;;;;4439121;32;19936;-78
2022/12/27 02:11:54;;;;;;;;;;;;;;;;;;4438934;32;19970;-79
2022/12/27 02:14:19;;;;;;;;;;;;;;;;;;4452109;32;19970;-78
2022/12/27 02:16:44;;;;;;;;;;;;;;;;;;4451944;32;19960;-79
2022/12/27 02:19:09;;;;;;;;;;;;;;;;;;4452849;32;19955;-79
2022/12/27 02:21:34;;;;;;;;;;;;;;;;;;4439692;32;19947;-79
2022/12/27 02:24:02;;;;;;;;;;;;;;;;;;4438240;32;19956;-78
2022/12/27 02:26:27;;;;;;;;;;;;;;;;;;4452297;32;20318;-78
2022/12/27 02:28:52;;;;;;;;;;;;;;;;;;4452165;32;19980;-78
2022/12/27 02:31:17;;;;;;;;;;;;;;;;;;4451588;32;19936;-78
2022/12/27 02:33:43;;;;;;;;;;;;;;;;;;4439058;32;19947;-79
2022/12/27 02:36:08;;;;;;;;;;;;;;;;;;4454468;32;19959;-79
2022/12/27 02:38:33;;;;;;;;;;;;;;;;;;4440338;32;19943;-80
2022/12/27 02:54:38;;;;;;;;;;;;;;;;;;4468355;32;20154;-78
2022/12/27 02:57:08;;;;;;;;;;;;;;;;;;4466950;32;19940;-77
2022/12/27 02:59:34;;;;;;;;;;;;;;;;;;4465176;32;19950;-78
2022/12/27 03:04:43;;;;;;;;;;;;;;;;;;4460202;32;20349;-79
2022/12/27 03:07:08;;;;;;;;;;;;;;;;;;4455011;32;20374;-79
2022/12/27 03:25:47;;;;;;;;;;;;;;;;;;4455221;32;20293;-78
2022/12/27 03:33:46;;;;;;;;;;;;;;;;;;4454268;32;19989;-77
2022/12/27 03:38:55;;;;;;;;;;;;;;;;;;4454767;32;19935;-78
2022/12/27 03:44:23;;;;;;;;;;;;;;;;;;4456510;32;19962;-78
2022/12/27 03:46:48;;;;;;;;;;;;;;;;;;4441459;32;20021;-77
2022/12/27 03:49:13;;;;;;;;;;;;;;;;;;4454027;32;19932;-78
2022/12/27 03:51:38;;;;;;;;;;;;;;;;;;4454322;32;19976;-78
2022/12/27 03:54:03;;;;;;;;;;;;;;;;;;4454085;32;20365;-77
2022/12/27 03:56:28;;;;;;;;;;;;;;;;;;4440186;32;19988;-78
2022/12/27 03:58:53;;;;;;;;;;;;;;;;;;4453938;32;19937;-77
2022/12/27 04:01:18;;;;;;;;;;;;;;;;;;4441884;32;19976;-77
2022/12/27 04:03:43;;;;;;;;;;;;;;;;;;4454949;32;19933;-77
2022/12/27 04:06:08;;;;;;;;;;;;;;;;;;4439385;32;19980;-77
2022/12/27 04:35:53;;;;;;;;;;;;;;;;;;4453107;32;19982;-76
2022/12/27 04:38:18;;;;;;;;;;;;;;;;;;4453408;32;19948;-76
2022/12/27 04:57:07;;;;;;;;;;;;;;;;;;4452502;32;19985;-76
2022/12/27 05:02:16;;;;;;;;;;;;;;;;;;4453139;32;19939;-76
2022/12/27 05:04:41;;;;;;;;;;;;;;;;;;4452893;32;19937;-75
2022/12/27 05:15:20;;;;;;;;;;;;;;;;;;4420448;32;19932;-76
2022/12/27 05:17:45;;;;;;;;;;;;;;;;;;4452460;32;19969;-76
2022/12/27 05:20:10;;;;;;;;;;;;;;;;;;4452581;32;19932;-77
2022/12/27 05:25:35;;;;;;;;;;;;;;;;;;4452682;32;19932;-77
2022/12/27 05:28:01;;;;;;;;;;;;;;;;;;4438192;32;19943;-76
2022/12/27 05:30:26;;;;;;;;;;;;;;;;;;4451830;32;19937;-76
2022/12/27 05:32:51;;;;;;;;;;;;;;;;;;4452203;32;20000;-76
2022/12/27 05:35:16;;;;;;;;;;;;;;;;;;4452810;32;19988;-76
2022/12/27 05:37:41;;;;;;;;;;;;;;;;;;4453083;32;19936;-76
2022/12/27 05:40:06;;;;;;;;;;;;;;;;;;4452384;32;19981;-76
2022/12/27 05:42:31;;;;;;;;;;;;;;;;;;4452047;32;19940;-76
2022/12/27 05:44:56;;;;;;;;;;;;;;;;;;4451851;32;19951;-75
2022/12/27 05:47:21;;;;;;;;;;;;;;;;;;4451895;32;19944;-76
2022/12/27 05:49:46;;;;;;;;;;;;;;;;;;4452448;32;20358;-76
2022/12/27 05:52:12;;;;;;;;;;;;;;;;;;4439339;32;19964;-76
2022/12/27 05:54:37;;;;;;;;;;;;;;;;;;4452802;32;20261;-75
2022/12/27 05:57:02;;;;;;;;;;;;;;;;;;4454448;32;19933;-76
2022/12/27 05:59:27;;;;;;;;;;;;;;;;;;4452318;32;19975;-76
2022/12/27 06:01:52;;;;;;;;;;;;;;;;;;4452099;32;19932;-76
2022/12/27 06:04:17;;;;;;;;;;;;;;;;;;4452677;32;20007;-76
2022/12/27 06:06:42;;;;;;;;;;;;;;;;;;4437831;32;19932;-76
2022/12/27 06:09:07;;;;;;;;;;;;;;;;;;4437177;32;19996;-76
2022/12/27 06:11:33;;;;;;;;;;;;;;;;;;4452028;32;19932;-76
2022/12/27 06:13:58;;;;;;;;;;;;;;;;;;4451553;32;19937;-75
2022/12/27 06:16:23;;;;;;;;;;;;;;;;;;4451741;32;19981;-76
2022/12/27 06:18:48;;;;;;;;;;;;;;;;;;4455115;32;19949;-75
2022/12/27 06:21:13;;;;;;;;;;;;;;;;;;4457985;32;19941;-74
2022/12/27 06:23:38;;;;;;;;;;;;;;;;;;4460258;32;19972;-75
2022/12/27 06:26:03;;;;;;;;;;;;;;;;;;4457646;32;20358;-74
2022/12/27 06:28:28;;;;;;;;;;;;;;;;;;4441963;32;19972;-75
2022/12/27 06:30:53;;;;;;;;;;;;;;;;;;4458957;32;19947;-76
2022/12/27 06:33:18;;;;;;;;;;;;;;;;;;4449042;32;19990;-76
2022/12/27 06:35:43;;;;;;;;;;;;;;;;;;4460050;32;19991;-76
2022/12/27 06:38:09;;;;;;;;;;;;;;;;;;4452958;32;20377;-76
2022/12/27 06:40:34;;;;;;;;;;;;;;;;;;4451992;32;19992;-76
2022/12/27 06:42:59;;;;;;;;;;;;;;;;;;4452780;32;19994;-76
2022/12/27 06:45:24;;;;;;;;;;;;;;;;;;4451558;32;19951;-76
2022/12/27 06:47:49;;;;;;;;;;;;;;;;;;4437558;32;19947;-76
2022/12/27 06:50:14;;;;;;;;;;;;;;;;;;4437827;32;19976;-76
2022/12/27 06:52:39;;;;;;;;;;;;;;;;;;4451553;32;19989;-76
2022/12/27 06:55:04;;;;;;;;;;;;;;;;;;4453067;32;19933;-76
2022/12/27 06:57:29;;;;;;;;;;;;;;;;;;4439487;32;19936;-75
2022/12/27 06:59:55;;;;;;;;;;;;;;;;;;4452154;32;19944;-75
2022/12/27 07:02:20;;;;;;;;;;;;;;;;;;4437488;32;19974;-74
2022/12/27 07:04:45;;;;;;;;;;;;;;;;;;4451842;32;19928;-74
2022/12/27 07:07:10;;;;;;;;;;;;;;;;;;4451881;32;19974;-75
2022/12/27 07:09:35;;;;;;;;;;;;;;;;;;4438030;32;19937;-75
2022/12/27 07:12:00;;;;;;;;;;;;;;;;;;4452383;32;19932;-75
2022/12/27 07:14:25;;;;;;;;;;;;;;;;;;4452197;32;19985;-75
2022/12/27 07:16:51;;;;;;;;;;;;;;;;;;4453105;32;19932;-75
2022/12/27 07:19:16;;;;;;;;;;;;;;;;;;4452450;32;19936;-76
2022/12/27 07:21:41;;;;;;;;;;;;;;;;;;4439917;32;19988;-76
2022/12/27 07:24:06;;;;;;;;;;;;;;;;;;4440486;32;19973;-74
2022/12/27 07:26:31;;;;;;;;;;;;;;;;;;4454236;32;19932;-76
2022/12/27 07:28:56;;;;;;;;;;;;;;;;;;4453755;32;19964;-76
2022/12/27 07:31:22;;;;;;;;;;;;;;;;;;4454068;32;19932;-76
2022/12/27 07:33:47;;;;;;;;;;;;;;;;;;4454602;32;19937;-76
2022/12/27 07:36:13;;;;;;;;;;;;;;;;;;4455402;32;19947;-75
2022/12/27 07:38:38;;;;;;;;;;;;;;;;;;4453194;32;20353;-75
2022/12/27 07:41:03;;;;;;;;;;;;;;;;;;4454441;32;19952;-76
2022/12/27 07:43:28;;;;;;;;;;;;;;;;;;4454059;32;20010;-76
2022/12/27 07:45:53;;;;;;;;;;;;;;;;;;4453494;32;19932;-76
2022/12/27 07:48:18;;;;;;;;;;;;;;;;;;4455072;32;19972;-75
2022/12/27 07:50:43;;;;;;;;;;;;;;;;;;4452297;32;20322;-75
2022/12/27 07:53:08;;;;;;;;;;;;;;;;;;4455831;32;19980;-74
2022/12/27 07:55:33;;;;;;;;;;;;;;;;;;4453981;32;20239;-74
2022/12/27 07:57:58;;;;;;;;;;;;;;;;;;4455340;32;20116;-75
2022/12/27 08:00:24;;;;;;;;;;;;;;;;;;4455339;32;19951;-74
2022/12/27 08:02:49;;;;;;;;;;;;;;;;;;4453359;32;19937;-75
2022/12/27 08:05:14;;;;;;;;;;;;;;;;;;4454017;32;20276;-75
2022/12/27 08:07:39;;;;;;;;;;;;;;;;;;4453191;32;20358;-75
2022/12/27 08:10:04;;;;;;;;;;;;;;;;;;4453251;32;19945;-76
2022/12/27 08:12:29;;;;;;;;;;;;;;;;;;4453659;32;19984;-75
2022/12/27 08:14:54;;;;;;;;;;;;;;;;;;4453467;32;19940;-76
2022/12/27 08:17:19;;;;;;;;;;;;;;;;;;4454033;32;19932;-75
2022/12/27 08:19:45;;;;;;;;;;;;;;;;;;4453106;32;20278;-75
2022/12/27 08:22:10;;;;;;;;;;;;;;;;;;4453332;32;20299;-74
2022/12/27 08:24:37;;;;;;;;;;;;;;;;;;4453324;32;20320;-74
2022/12/27 08:27:02;;;;;;;;;;;;;;;;;;4454599;32;20310;-75
2022/12/27 08:29:27;;;;;;;;;;;;;;;;;;4453687;32;20332;-74
2022/12/27 08:31:52;;;;;;;;;;;;;;;;;;4456476;32;19932;-75
2022/12/27 08:34:17;;;;;;;;;;;;;;;;;;4454685;32;19973;-75
2022/12/27 08:36:42;;;;;;;;;;;;;;;;;;4456617;32;19941;-74
2022/12/27 08:39:07;;;;;;;;;;;;;;;;;;4453840;32;19941;-75
2022/12/27 08:41:32;;;;;;;;;;;;;;;;;;4451808;32;19946;-74
2022/12/27 08:43:58;;;;;;;;;;;;;;;;;;4453952;32;19932;-74
2022/12/27 08:46:23;;;;;;;;;;;;;;;;;;4452246;32;19936;-75
2022/12/27 08:48:48;;;;;;;;;;;;;;;;;;4452734;32;19953;-74
2022/12/27 08:51:13;;;;;;;;;;;;;;;;;;4452255;32;20289;-76
2022/12/27 08:53:38;;;;;;;;;;;;;;;;;;4452850;32;19980;-75
2022/12/27 08:56:03;;;;;;;;;;;;;;;;;;4453123;32;19947;-75
2022/12/27 08:58:28;;;;;;;;;;;;;;;;;;4438729;32;19995;-75
2022/12/27 09:00:53;;;;;;;;;;;;;;;;;;4452121;32;20285;-75
2022/12/27 09:03:18;;;;;;;;;;;;;;;;;;4452691;32;19970;-75
2022/12/27 09:05:44;;;;;;;;;;;;;;;;;;4452646;32;19932;-74
2022/12/27 09:08:09;;;;;;;;;;;;;;;;;;4452262;32;19947;-74
2022/12/27 09:10:34;;;;;;;;;;;;;;;;;;4452062;32;19936;-73
2022/12/27 09:12:59;;;;;;;;;;;;;;;;;;4452853;32;19936;-74
2022/12/27 09:15:24;;;;;;;;;;;;;;;;;;4452371;32;19980;-76
2022/12/27 09:17:49;;;;;;;;;;;;;;;;;;4437936;32;19981;-76
2022/12/27 09:20:15;;;;;;;;;;;;;;;;;;4453122;32;19936;-74
2022/12/27 09:22:41;;;;;;;;;;;;;;;;;;4453296;32;19984;-74
2022/12/27 09:25:06;;;;;;;;;;;;;;;;;;4455039;32;19936;-74
2022/12/27 09:27:31;;;;;;;;;;;;;;;;;;4452312;32;19950;-74
2022/12/27 09:29:56;;;;;;;;;;;;;;;;;;4451824;32;19950;-73
2022/12/27 09:32:26;;;;;;;;;;;;;;;;;;4451610;32;19932;-73
2022/12/27 09:34:51;;;;;;;;;;;;;;;;;;4437936;32;19928;-75
2022/12/27 09:37:16;;;;;;;;;;;;;;;;;;4452193;32;19946;-74
2022/12/27 09:39:41;;;;;;;;;;;;;;;;;;4452457;32;19937;-73
2022/12/27 09:42:10;;;;;;;;;;;;;;;;;;4451825;32;19937;-73
2022/12/27 09:44:35;;;;;;;;;;;;;;;;;;4451091;32;19947;-73
2022/12/27 09:47:01;;;;;;;;;;;;;;;;;;4452148;32;20349;-74
2022/12/27 09:49:26;;;;;;;;;;;;;;;;;;4452653;32;19943;-72
2022/12/27 09:51:52;;;;;;;;;;;;;;;;;;4452328;32;19949;-73
2022/12/27 09:54:17;;;;;;;;;;;;;;;;;;4439199;32;19946;-74
2022/12/27 09:56:42;;;;;;;;;;;;;;;;;;4454015;32;19990;-73
2022/12/27 09:59:07;;;;;;;;;;;;;;;;;;4452551;32;19955;-74
2022/12/27 10:01:32;;;;;;;;;;;;;;;;;;4452196;32;19968;-74
2022/12/27 10:03:57;;;;;;;;;;;;;;;;;;4437536;32;19969;-74
2022/12/27 10:06:22;;;;;;;;;;;;;;;;;;4451965;32;19951;-74
2022/12/27 10:08:47;;;;;;;;;;;;;;;;;;4453497;32;19943;-74
2022/12/27 10:11:34;;;;;;;;;;;;;;;;;;4451938;32;19940;-74
2022/12/27 10:13:58;;;;;;;;;;;;;;;;;;4452545;32;20313;-73
2022/12/27 10:16:23;;;;;;;;;;;;;;;;;;4438015;32;20268;-74
2022/12/27 10:18:48;;;;;;;;;;;;;;;;;;4437607;32;20238;-72
2022/12/27 10:21:13;;;;;;;;;;;;;;;;;;4437565;32;19943;-73
2022/12/27 10:23:38;;;;;;;;;;;;;;;;;;4452609;32;19967;-73
2022/12/27 10:26:04;;;;;;;;;;;;;;;;;;4451501;32;19932;-73
2022/12/27 10:28:29;;;;;;;;;;;;;;;;;;4453274;32;19991;-73
2022/12/27 10:30:54;;;;;;;;;;;;;;;;;;4452666;32;19947;-72
2022/12/27 10:33:19;;;;;;;;;;;;;;;;;;4452307;32;19994;-74
2022/12/27 10:35:44;;;;;;;;;;;;;;;;;;4451257;32;20301;-73
2022/12/27 10:38:09;;;;;;;;;;;;;;;;;;4437549;32;19991;-74
2022/12/27 10:40:34;;;;;;;;;;;;;;;;;;4452597;32;20011;-73
2022/12/27 10:42:59;;;;;;;;;;;;;;;;;;4451253;32;19933;-74
2022/12/27 10:45:27;;;;;;;;;;;;;;;;;;4452580;32;20331;-74
2022/12/27 10:47:53;;;;;;;;;;;;;;;;;;4455228;32;19959;-74
2022/12/27 10:50:18;;;;;;;;;;;;;;;;;;4454296;32;19945;-74
2022/12/27 10:52:43;;;;;;;;;;;;;;;;;;4451840;32;19940;-74
2022/12/27 10:55:08;;;;;;;;;;;;;;;;;;4452600;32;20267;-73
2022/12/27 10:57:33;;;;;;;;;;;;;;;;;;4440910;32;19933;-74
2022/12/27 10:59:58;;;;;;;;;;;;;;;;;;4440525;32;19972;-73
2022/12/27 11:02:23;;;;;;;;;;;;;;;;;;4454618;32;19955;-75
2022/12/27 11:04:49;;;;;;;;;;;;;;;;;;4454325;32;19976;-73
2022/12/27 11:07:14;;;;;;;;;;;;;;;;;;4454407;32;19940;-74
2022/12/27 11:09:40;;;;;;;;;;;;;;;;;;4453865;32;19990;-74
2022/12/27 11:12:05;;;;;;;;;;;;;;;;;;4453393;32;20301;-73
2022/12/27 11:14:30;;;;;;;;;;;;;;;;;;4454148;32;19937;-74
2022/12/27 11:16:55;;;;;;;;;;;;;;;;;;4439453;32;19972;-73
2022/12/27 11:19:20;;;;;;;;;;;;;;;;;;4453996;32;19973;-73
2022/12/27 11:21:45;;;;;;;;;;;;;;;;;;4453515;32;19937;-73
2022/12/27 11:24:10;;;;;;;;;;;;;;;;;;4439799;32;19956;-74
2022/12/27 11:26:35;;;;;;;;;;;;;;;;;;4453392;32;19932;-74
2022/12/27 11:29:00;;;;;;;;;;;;;;;;;;4454690;32;19967;-73
2022/12/27 11:31:26;;;;;;;;;;;;;;;;;;4454926;32;20345;-73
2022/12/27 11:33:51;;;;;;;;;;;;;;;;;;4439209;32;19947;-73
2022/12/27 11:36:16;;;;;;;;;;;;;;;;;;4454299;32;19933;-73
2022/12/27 11:38:41;;;;;;;;;;;;;;;;;;4440294;32;20000;-73
2022/12/27 11:41:06;;;;;;;;;;;;;;;;;;4453379;32;20298;-73
2022/12/27 11:43:31;;;;;;;;;;;;;;;;;;4440457;32;19984;-72
2022/12/27 11:45:57;;;;;;;;;;;;;;;;;;4452856;32;20261;-73
2022/12/27 11:48:22;;;;;;;;;;;;;;;;;;4438880;32;19932;-73
2022/12/27 11:50:47;;;;;;;;;;;;;;;;;;4452920;32;19951;-73
2022/12/27 11:53:12;;;;;;;;;;;;;;;;;;4453140;32;19937;-74
2022/12/27 11:55:38;;;;;;;;;;;;;;;;;;4455202;32;19932;-73
2022/12/27 11:58:03;;;;;;;;;;;;;;;;;;4453678;32;20360;-72
2022/12/27 12:00:30;;;;;;;;;;;;;;;;;;4454308;32;19951;-73
2022/12/27 12:02:55;;;;;;;;;;;;;;;;;;4453921;32;19932;-74
2022/12/27 12:05:21;;;;;;;;;;;;;;;;;;4453810;32;19947;-74
2022/12/27 12:07:46;;;;;;;;;;;;;;;;;;4440081;32;19999;-72
2022/12/27 12:10:11;;;;;;;;;;;;;;;;;;4453414;32;19948;-74
2022/12/27 12:12:37;;;;;;;;;;;;;;;;;;4439171;32;19937;-74
2022/12/27 12:15:02;;;;;;;;;;;;;;;;;;4438707;32;20277;-73
2022/12/27 12:17:27;;;;;;;;;;;;;;;;;;4453743;32;19949;-73
2022/12/27 12:19:52;;;;;;;;;;;;;;;;;;4452768;32;20022;-75
2022/12/27 12:22:17;;;;;;;;;;;;;;;;;;4438723;32;19969;-73
2022/12/27 12:24:42;;;;;;;;;;;;;;;;;;4452987;32;19936;-74
2022/12/27 12:27:07;;;;;;;;;;;;;;;;;;4438430;32;20023;-73
2022/12/27 12:29:33;;;;;;;;;;;;;;;;;;4453043;32;20245;-74
2022/12/27 12:31:58;;;;;;;;;;;;;;;;;;4439074;32;19972;-74
2022/12/27 12:34:23;;;;;;;;;;;;;;;;;;4452824;32;19940;-74
2022/12/27 12:36:48;;;;;;;;;;;;;;;;;;4454132;32;20026;-73
2022/12/27 12:39:13;;;;;;;;;;;;;;;;;;4452977;32;19943;-74
2022/12/27 12:41:38;;;;;;;;;;;;;;;;;;4453860;32;20014;-73
2022/12/27 12:44:03;;;;;;;;;;;;;;;;;;4452676;32;19936;-74
2022/12/27 12:46:31;;;;;;;;;;;;;;;;;;4453758;32;20028;-73
2022/12/27 12:48:56;;;;;;;;;;;;;;;;;;4438633;32;19928;-73
2022/12/27 12:51:21;;;;;;;;;;;;;;;;;;4454388;32;19974;-74
2022/12/27 12:53:46;;;;;;;;;;;;;;;;;;4454736;32;20260;-73
2022/12/27 12:56:11;;;;;;;;;;;;;;;;;;4452821;32;19951;-74
2022/12/27 12:58:36;;;;;;;;;;;;;;;;;;4452768;32;19937;-74
2022/12/27 13:01:01;;;;;;;;;;;;;;;;;;4454003;32;19946;-73
2022/12/27 13:03:26;;;;;;;;;;;;;;;;;;4452905;32;19936;-73
2022/12/27 13:05:51;;;;;;;;;;;;;;;;;;4453809;32;20030;-74
2022/12/27 13:08:17;;;;;;;;;;;;;;;;;;4453470;32;19937;-73
2022/12/27 13:10:42;;;;;;;;;;;;;;;;;;4453979;32;19936;-73
2022/12/27 13:13:07;;;;;;;;;;;;;;;;;;4454539;32;19973;-73
2022/12/27 13:15:32;;;;;;;;;;;;;;;;;;4455650;32;19937;-73
2022/12/27 13:17:57;;;;;;;;;;;;;;;;;;4455210;32;19936;-73
2022/12/27 13:20:23;;;;;;;;;;;;;;;;;;4456253;32;19937;-72
2022/12/27 13:22:48;;;;;;;;;;;;;;;;;;4455076;32;20007;-73
2022/12/27 13:25:14;;;;;;;;;;;;;;;;;;4455944;32;19932;-74
2022/12/27 13:27:39;;;;;;;;;;;;;;;;;;4456683;32;19976;-74
2022/12/27 13:30:04;;;;;;;;;;;;;;;;;;4455512;32;20286;-74
2022/12/27 13:32:29;;;;;;;;;;;;;;;;;;4454570;32;20326;-72
2022/12/27 13:34:54;;;;;;;;;;;;;;;;;;4452945;32;19940;-72
2022/12/27 13:37:19;;;;;;;;;;;;;;;;;;4452106;32;20051;-75
2022/12/27 13:39:44;;;;;;;;;;;;;;;;;;4451558;32;19944;-74
2022/12/27 13:42:10;;;;;;;;;;;;;;;;;;4451521;32;19966;-74
2022/12/27 13:44:35;;;;;;;;;;;;;;;;;;4453008;32;20280;-73
2022/12/27 13:47:00;;;;;;;;;;;;;;;;;;4451600;32;19932;-73
2022/12/27 13:49:25;;;;;;;;;;;;;;;;;;4452770;32;19971;-74
2022/12/27 13:51:50;;;;;;;;;;;;;;;;;;4437747;32;19937;-73
2022/12/27 13:54:15;;;;;;;;;;;;;;;;;;4451164;32;20334;-73
2022/12/27 13:56:41;;;;;;;;;;;;;;;;;;4437102;32;19947;-74
2022/12/27 13:59:06;;;;;;;;;;;;;;;;;;4437465;32;19992;-75
2022/12/27 14:01:31;;;;;;;;;;;;;;;;;;4437351;32;20003;-74
2022/12/27 14:03:56;;;;;;;;;;;;;;;;;;4452364;32;20283;-74
2022/12/27 14:06:21;;;;;;;;;;;;;;;;;;4451357;32;20012;-74
2022/12/27 14:08:46;;;;;;;;;;;;;;;;;;4451810;32;20331;-74
2022/12/27 14:11:11;;;;;;;;;;;;;;;;;;4450918;32;19940;-72
2022/12/27 14:13:36;;;;;;;;;;;;;;;;;;4450810;32;20006;-73
2022/12/27 14:16:01;;;;;;;;;;;;;;;;;;4451235;32;20297;-73
2022/12/27 14:18:27;;;;;;;;;;;;;;;;;;4451000;32;19936;-74
2022/12/27 14:20:52;;;;;;;;;;;;;;;;;;4451069;32;19947;-72
2022/12/27 14:23:17;;;;;;;;;;;;;;;;;;4436842;32;19936;-73
2022/12/27 14:25:42;;;;;;;;;;;;;;;;;;4438001;32;19974;-73
2022/12/27 14:28:07;;;;;;;;;;;;;;;;;;4451268;32;19932;-74
2022/12/27 14:30:32;;;;;;;;;;;;;;;;;;4453315;32;19940;-74
2022/12/27 14:32:57;;;;;;;;;;;;;;;;;;4455136;32;20299;-74
2022/12/27 14:35:23;;;;;;;;;;;;;;;;;;4454397;32;19940;-73
2022/12/27 14:37:48;;;;;;;;;;;;;;;;;;4454131;32;19984;-73
2022/12/27 14:40:13;;;;;;;;;;;;;;;;;;4453615;32;19936;-73
2022/12/27 14:42:38;;;;;;;;;;;;;;;;;;4440278;32;19972;-73
2022/12/27 14:45:03;;;;;;;;;;;;;;;;;;4454214;32;19944;-75
2022/12/27 14:47:28;;;;;;;;;;;;;;;;;;4440654;32;20296;-74
2022/12/27 14:49:53;;;;;;;;;;;;;;;;;;4457098;32;19944;-74
2022/12/27 14:52:18;;;;;;;;;;;;;;;;;;4455337;32;19972;-73
2022/12/27 14:54:44;;;;;;;;;;;;;;;;;;4455580;32;19941;-74
2022/12/27 14:57:09;;;;;;;;;;;;;;;;;;4454841;32;19976;-74
2022/12/27 14:59:34;;;;;;;;;;;;;;;;;;4454325;32;19936;-74
2022/12/27 15:02:00;;;;;;;;;;;;;;;;;;4454507;32;19967;-74
2022/12/27 15:04:25;;;;;;;;;;;;;;;;;;4453779;32;20281;-73
2022/12/27 15:06:50;;;;;;;;;;;;;;;;;;4454267;32;20303;-74
2022/12/27 15:09:16;;;;;;;;;;;;;;;;;;4454812;32;19936;-73
2022/12/27 15:11:41;;;;;;;;;;;;;;;;;;4454361;32;19936;-73
2022/12/27 15:14:06;;;;;;;;;;;;;;;;;;4454218;32;19947;-72
2022/12/27 15:16:31;;;;;;;;;;;;;;;;;;4453715;32;19941;-73
2022/12/27 15:18:57;;;;;;;;;;;;;;;;;;4453964;32;19936;-72
2022/12/27 15:21:22;;;;;;;;;;;;;;;;;;4453710;32;19979;-72
2022/12/27 15:23:48;;;;;;;;;;;;;;;;;;4439384;32;20328;-73
2022/12/27 15:26:13;;;;;;;;;;;;;;;;;;4441136;32;20013;-73
2022/12/27 15:28:38;;;;;;;;;;;;;;;;;;4453337;32;19992;-74
2022/12/27 15:31:04;;;;;;;;;;;;;;;;;;4439334;32;19940;-74
2022/12/27 15:33:29;;;;;;;;;;;;;;;;;;4440843;32;19976;-74
2022/12/27 15:35:54;;;;;;;;;;;;;;;;;;4454508;32;19940;-75
2022/12/27 15:38:19;;;;;;;;;;;;;;;;;;4453158;32;19976;-73
2022/12/27 15:40:44;;;;;;;;;;;;;;;;;;4453199;32;19932;-72
2022/12/27 15:43:09;;;;;;;;;;;;;;;;;;4438917;32;19976;-74
2022/12/27 15:45:34;;;;;;;;;;;;;;;;;;4453830;32;20280;-74
2022/12/27 15:47:59;;;;;;;;;;;;;;;;;;4453799;32;20302;-74
2022/12/27 15:50:25;;;;;;;;;;;;;;;;;;4453709;32;19956;-73
2022/12/27 15:52:51;;;;;;;;;;;;;;;;;;4453181;32;20346;-74
2022/12/27 15:55:17;;;;;;;;;;;;;;;;;;4453282;32;19977;-75
2022/12/27 15:57:42;;;;;;;;;;;;;;;;;;4454223;32;19941;-74
2022/12/27 16:00:07;;;;;;;;;;;;;;;;;;4452851;32;19940;-73
2022/12/27 16:02:32;;;;;;;;;;;;;;;;;;4455129;32;19940;-73
2022/12/27 16:04:57;;;;;;;;;;;;;;;;;;4453060;32;20000;-73
2022/12/27 16:07:22;;;;;;;;;;;;;;;;;;4454376;32;20347;-72
2022/12/27 16:09:47;;;;;;;;;;;;;;;;;;4453692;32;19969;-73
2022/12/27 16:12:12;;;;;;;;;;;;;;;;;;4455119;32;20043;-74
2022/12/27 16:14:37;;;;;;;;;;;;;;;;;;4453365;32;20266;-73
2022/12/27 16:17:03;;;;;;;;;;;;;;;;;;4453468;32;19974;-74
2022/12/27 16:19:28;;;;;;;;;;;;;;;;;;4453651;32;19994;-75
2022/12/27 16:21:53;;;;;;;;;;;;;;;;;;4453072;32;19969;-74
2022/12/27 16:24:18;;;;;;;;;;;;;;;;;;4452895;32;19983;-73
2022/12/27 16:26:43;;;;;;;;;;;;;;;;;;4452593;32;19946;-74
2022/12/27 16:29:08;;;;;;;;;;;;;;;;;;4452481;32;19932;-73
2022/12/27 16:31:33;;;;;;;;;;;;;;;;;;4452579;32;19932;-74
2022/12/27 16:33:59;;;;;;;;;;;;;;;;;;4453323;32;19995;-73
2022/12/27 16:36:24;;;;;;;;;;;;;;;;;;4452811;32;19941;-73
2022/12/27 16:38:49;;;;;;;;;;;;;;;;;;4453097;32;19954;-74
2022/12/27 16:41:14;;;;;;;;;;;;;;;;;;4452588;32;19936;-73
2022/12/27 16:43:39;;;;;;;;;;;;;;;;;;4453761;32;19958;-73
2022/12/27 16:46:04;;;;;;;;;;;;;;;;;;4452560;32;19932;-72
2022/12/27 16:48:30;;;;;;;;;;;;;;;;;;4438589;32;19987;-72
2022/12/27 16:50:55;;;;;;;;;;;;;;;;;;4438633;32;19937;-72
2022/12/27 16:53:20;;;;;;;;;;;;;;;;;;4438649;32;19936;-73
2022/12/27 16:55:45;;;;;;;;;;;;;;;;;;4452654;32;19932;-73
2022/12/27 16:58:11;;;;;;;;;;;;;;;;;;4452991;32;20334;-73
2022/12/27 17:00:36;;;;;;;;;;;;;;;;;;4452569;32;19995;-73
2022/12/27 17:03:01;;;;;;;;;;;;;;;;;;4452353;32;19969;-73
2022/12/27 17:05:26;;;;;;;;;;;;;;;;;;4437993;32;19988;-74
2022/12/27 17:07:51;;;;;;;;;;;;;;;;;;4452144;32;19947;-74
2022/12/27 17:10:16;;;;;;;;;;;;;;;;;;4451791;32;19937;-73
2022/12/27 17:12:41;;;;;;;;;;;;;;;;;;4452766;32;19932;-73
2022/12/27 17:15:06;;;;;;;;;;;;;;;;;;4452663;32;19945;-73
2022/12/27 17:17:32;;;;;;;;;;;;;;;;;;4452308;32;20354;-74
2022/12/27 17:19:57;;;;;;;;;;;;;;;;;;4451702;32;19976;-73
2022/12/27 17:22:22;;;;;;;;;;;;;;;;;;4453816;32;19933;-72
2022/12/27 17:24:47;;;;;;;;;;;;;;;;;;4451921;32;19983;-72
2022/12/27 17:27:12;;;;;;;;;;;;;;;;;;4438290;32;20305;-73
2022/12/27 17:29:37;;;;;;;;;;;;;;;;;;4452313;32;19970;-74
2022/12/27 17:32:02;;;;;;;;;;;;;;;;;;4453314;32;19932;-74
2022/12/27 17:34:27;;;;;;;;;;;;;;;;;;4452886;32;19973;-74
2022/12/27 17:36:53;;;;;;;;;;;;;;;;;;4438013;32;20278;-72
2022/12/27 17:39:18;;;;;;;;;;;;;;;;;;4452617;32;19986;-75
2022/12/27 17:44:36;;;;;;;;;;;;;;;;;;4452016;32;20269;-74
2022/12/27 17:47:02;;;;;;;;;;;;;;;;;;4451243;32;19964;-73
2022/12/27 17:49:27;;;;;;;;;;;;;;;;;;4437504;32;19955;-74
2022/12/27 18:00:03;;;;;;;;;;;;;;;;;;4452328;32;19943;-72
2022/12/27 18:02:28;;;;;;;;;;;;;;;;;;4452213;32;19940;-73
2022/12/27 18:04:54;;;;;;;;;;;;;;;;;;4450897;32;19936;-73
2022/12/27 18:07:19;;;;;;;;;;;;;;;;;;4451330;32;19984;-72
2022/12/27 18:09:44;;;;;;;;;;;;;;;;;;4451552;32;19951;-73
2022/12/27 18:12:09;;;;;;;;;;;;;;;;;;4452219;32;19968;-73
2022/12/27 18:14:34;;;;;;;;;;;;;;;;;;4451624;32;19956;-73
2022/12/27 18:16:59;;;;;;;;;;;;;;;;;;4453037;32;19975;-73
2022/12/27 18:19:24;;;;;;;;;;;;;;;;;;4451267;32;19987;-73
2022/12/27 18:21:49;;;;;;;;;;;;;;;;;;4451362;32;19979;-73
2022/12/27 18:24:14;;;;;;;;;;;;;;;;;;4452014;32;19948;-72
2022/12/27 18:26:40;;;;;;;;;;;;;;;;;;4452409;32;19972;-72